sensor_id;sensor_type;location;lat;lon;timestamp;P1;durP1;ratioP1;P2;durP2;ratioP2
9960;SDS011;5021;51.506;11.320;2024-01-16T00:00:20;4.67;;;3.50;;
9960;SDS011;5021;51.506;11.320;2024-01-16T00:02:46;6.23;;;3.20;;
9960;SDS011;5021;51.506;11.320;2024-01-16T00:05:11;6.20;;;3.60;;
9960;SDS011;5021;51.506;11.320;2024-01-16T00:07:38;7.10;;;3.67;;
9960;SDS011;5021;51.506;11.320;2024-01-16T00:10:06;4.80;;;3.30;;
9960;SDS011;5021;51.506;11.320;2024-01-16T00:12:32;5.63;;;3.70;;
9960;SDS011;5021;51.506;11.320;2024-01-16T00:14:58;5.60;;;3.57;;
9960;SDS011;5021;51.506;11.320;2024-01-16T00:17:24;4.97;;;3.30;;
9960;SDS011;5021;51.506;11.320;2024-01-16T00:19:50;5.60;;;3.57;;
9960;SDS011;5021;51.506;11.320;2024-01-16T00:22:16;4.47;;;3.17;;
9960;SDS011;5021;51.506;11.320;2024-01-16T00:24:42;4.27;;;3.30;;
9960;SDS011;5021;51.506;11.320;2024-01-16T00:27:08;7.17;;;3.30;;
9960;SDS011;5021;51.506;11.320;2024-01-16T00:29:34;3.63;;;3.30;;
9960;SDS011;5021;51.506;11.320;2024-01-16T00:32:00;4.33;;;3.00;;
9960;SDS011;5021;51.506;11.320;2024-01-16T00:34:26;5.10;;;2.90;;
9960;SDS011;5021;51.506;11.320;2024-01-16T00:36:52;4.00;;;2.70;;
9960;SDS011;5021;51.506;11.320;2024-01-16T00:39:18;5.07;;;2.90;;
9960;SDS011;5021;51.506;11.320;2024-01-16T00:41:43;4.10;;;2.80;;
9960;SDS011;5021;51.506;11.320;2024-01-16T00:44:10;4.33;;;2.80;;
9960;SDS011;5021;51.506;11.320;2024-01-16T00:46:36;4.07;;;2.40;;
9960;SDS011;5021;51.506;11.320;2024-01-16T00:49:02;5.73;;;3.00;;
9960;SDS011;5021;51.506;11.320;2024-01-16T00:51:28;3.80;;;2.90;;
9960;SDS011;5021;51.506;11.320;2024-01-16T00:53:54;3.77;;;2.23;;
9960;SDS011;5021;51.506;11.320;2024-01-16T00:56:20;9.47;;;3.00;;
9960;SDS011;5021;51.506;11.320;2024-01-16T00:58:46;5.33;;;2.23;;
9960;SDS011;5021;51.506;11.320;2024-01-16T01:01:12;4.33;;;2.40;;
9960;SDS011;5021;51.506;11.320;2024-01-16T01:03:38;5.90;;;2.47;;
9960;SDS011;5021;51.506;11.320;2024-01-16T01:06:04;4.67;;;2.40;;
9960;SDS011;5021;51.506;11.320;2024-01-16T01:08:30;3.60;;;2.20;;
9960;SDS011;5021;51.506;11.320;2024-01-16T01:10:56;5.97;;;3.00;;
9960;SDS011;5021;51.506;11.320;2024-01-16T01:13:22;5.40;;;2.60;;
9960;SDS011;5021;51.506;11.320;2024-01-16T01:15:50;3.63;;;2.70;;
9960;SDS011;5021;51.506;11.320;2024-01-16T01:18:16;3.43;;;2.60;;
9960;SDS011;5021;51.506;11.320;2024-01-16T01:20:41;2.87;;;2.30;;
9960;SDS011;5021;51.506;11.320;2024-01-16T01:23:07;7.47;;;3.20;;
9960;SDS011;5021;51.506;11.320;2024-01-16T01:25:33;5.20;;;2.77;;
9960;SDS011;5021;51.506;11.320;2024-01-16T01:27:59;4.20;;;2.80;;
9960;SDS011;5021;51.506;11.320;2024-01-16T01:30:25;4.27;;;2.60;;
9960;SDS011;5021;51.506;11.320;2024-01-16T01:32:51;3.60;;;2.60;;
9960;SDS011;5021;51.506;11.320;2024-01-16T01:35:17;2.87;;;2.53;;
9960;SDS011;5021;51.506;11.320;2024-01-16T01:37:44;7.87;;;2.33;;
9960;SDS011;5021;51.506;11.320;2024-01-16T01:40:10;4.53;;;2.50;;
9960;SDS011;5021;51.506;11.320;2024-01-16T01:42:37;4.00;;;2.33;;
9960;SDS011;5021;51.506;11.320;2024-01-16T01:45:03;4.13;;;2.47;;
9960;SDS011;5021;51.506;11.320;2024-01-16T01:47:29;3.40;;;2.30;;
9960;SDS011;5021;51.506;11.320;2024-01-16T01:49:56;2.93;;;2.23;;
9960;SDS011;5021;51.506;11.320;2024-01-16T01:52:22;3.80;;;2.20;;
9960;SDS011;5021;51.506;11.320;2024-01-16T01:54:48;6.73;;;2.57;;
9960;SDS011;5021;51.506;11.320;2024-01-16T01:57:14;5.17;;;2.30;;
9960;SDS011;5021;51.506;11.320;2024-01-16T01:59:40;5.77;;;2.40;;
9960;SDS011;5021;51.506;11.320;2024-01-16T02:02:06;3.83;;;2.10;;
9960;SDS011;5021;51.506;11.320;2024-01-16T02:04:32;4.67;;;2.30;;
9960;SDS011;5021;51.506;11.320;2024-01-16T02:06:58;3.10;;;2.30;;
9960;SDS011;5021;51.506;11.320;2024-01-16T02:09:24;3.70;;;2.60;;
9960;SDS011;5021;51.506;11.320;2024-01-16T02:11:50;3.70;;;2.20;;
9960;SDS011;5021;51.506;11.320;2024-01-16T02:14:16;3.03;;;2.27;;
9960;SDS011;5021;51.506;11.320;2024-01-16T02:16:42;5.83;;;2.67;;
9960;SDS011;5021;51.506;11.320;2024-01-16T02:19:10;4.87;;;3.00;;
9960;SDS011;5021;51.506;11.320;2024-01-16T02:21:39;4.47;;;2.70;;
9960;SDS011;5021;51.506;11.320;2024-01-16T02:24:07;4.67;;;2.73;;
9960;SDS011;5021;51.506;11.320;2024-01-16T02:26:33;3.97;;;2.53;;
9960;SDS011;5021;51.506;11.320;2024-01-16T02:29:02;3.40;;;2.50;;
9960;SDS011;5021;51.506;11.320;2024-01-16T02:31:32;3.27;;;2.50;;
9960;SDS011;5021;51.506;11.320;2024-01-16T02:33:58;6.73;;;2.90;;
9960;SDS011;5021;51.506;11.320;2024-01-16T02:36:24;4.57;;;2.30;;
9960;SDS011;5021;51.506;11.320;2024-01-16T02:38:50;4.67;;;2.50;;
9960;SDS011;5021;51.506;11.320;2024-01-16T02:41:16;4.07;;;2.23;;
9960;SDS011;5021;51.506;11.320;2024-01-16T02:43:42;4.57;;;2.53;;
9960;SDS011;5021;51.506;11.320;2024-01-16T02:46:08;5.13;;;2.37;;
9960;SDS011;5021;51.506;11.320;2024-01-16T02:48:35;5.57;;;2.47;;
9960;SDS011;5021;51.506;11.320;2024-01-16T02:51:01;4.47;;;2.40;;
9960;SDS011;5021;51.506;11.320;2024-01-16T02:53:28;4.03;;;2.70;;
9960;SDS011;5021;51.506;11.320;2024-01-16T02:55:54;6.70;;;2.63;;
9960;SDS011;5021;51.506;11.320;2024-01-16T02:58:20;6.03;;;3.00;;
9960;SDS011;5021;51.506;11.320;2024-01-16T03:00:46;4.27;;;2.47;;
9960;SDS011;5021;51.506;11.320;2024-01-16T03:03:13;5.03;;;2.43;;
9960;SDS011;5021;51.506;11.320;2024-01-16T03:05:39;3.37;;;2.03;;
9960;SDS011;5021;51.506;11.320;2024-01-16T03:08:05;5.10;;;2.80;;
9960;SDS011;5021;51.506;11.320;2024-01-16T03:10:32;4.37;;;2.90;;
9960;SDS011;5021;51.506;11.320;2024-01-16T03:12:58;3.83;;;2.00;;
9960;SDS011;5021;51.506;11.320;2024-01-16T03:15:24;4.97;;;2.47;;
9960;SDS011;5021;51.506;11.320;2024-01-16T03:17:50;5.63;;;2.43;;
9960;SDS011;5021;51.506;11.320;2024-01-16T03:20:17;5.80;;;2.47;;
9960;SDS011;5021;51.506;11.320;2024-01-16T03:22:43;3.43;;;2.50;;
9960;SDS011;5021;51.506;11.320;2024-01-16T03:25:09;7.07;;;2.60;;
9960;SDS011;5021;51.506;11.320;2024-01-16T03:27:37;3.37;;;2.63;;
9960;SDS011;5021;51.506;11.320;2024-01-16T03:30:03;7.33;;;3.17;;
9960;SDS011;5021;51.506;11.320;2024-01-16T03:32:29;8.00;;;3.10;;
9960;SDS011;5021;51.506;11.320;2024-01-16T03:34:55;5.53;;;2.90;;
9960;SDS011;5021;51.506;11.320;2024-01-16T03:37:21;5.43;;;3.03;;
9960;SDS011;5021;51.506;11.320;2024-01-16T03:39:47;5.30;;;3.23;;
9960;SDS011;5021;51.506;11.320;2024-01-16T03:42:12;8.10;;;3.87;;
9960;SDS011;5021;51.506;11.320;2024-01-16T03:44:39;3.80;;;2.80;;
9960;SDS011;5021;51.506;11.320;2024-01-16T03:47:06;3.77;;;3.10;;
9960;SDS011;5021;51.506;11.320;2024-01-16T03:49:32;4.27;;;3.03;;
9960;SDS011;5021;51.506;11.320;2024-01-16T03:51:58;5.47;;;4.53;;
9960;SDS011;5021;51.506;11.320;2024-01-16T03:54:24;4.83;;;3.23;;
9960;SDS011;5021;51.506;11.320;2024-01-16T03:56:50;4.73;;;3.43;;
9960;SDS011;5021;51.506;11.320;2024-01-16T03:59:16;9.00;;;4.13;;
9960;SDS011;5021;51.506;11.320;2024-01-16T04:01:42;6.67;;;3.73;;
9960;SDS011;5021;51.506;11.320;2024-01-16T04:04:10;7.77;;;4.50;;
9960;SDS011;5021;51.506;11.320;2024-01-16T04:06:36;6.37;;;4.40;;
9960;SDS011;5021;51.506;11.320;2024-01-16T04:09:02;7.70;;;4.23;;
9960;SDS011;5021;51.506;11.320;2024-01-16T04:11:29;6.63;;;4.00;;
9960;SDS011;5021;51.506;11.320;2024-01-16T04:13:55;6.23;;;3.67;;
9960;SDS011;5021;51.506;11.320;2024-01-16T04:16:21;6.67;;;3.50;;
9960;SDS011;5021;51.506;11.320;2024-01-16T04:18:47;4.87;;;3.73;;
9960;SDS011;5021;51.506;11.320;2024-01-16T04:21:13;9.50;;;3.77;;
9960;SDS011;5021;51.506;11.320;2024-01-16T04:23:41;5.40;;;3.60;;
9960;SDS011;5021;51.506;11.320;2024-01-16T04:26:07;6.13;;;3.57;;
9960;SDS011;5021;51.506;11.320;2024-01-16T04:28:33;6.50;;;3.60;;
9960;SDS011;5021;51.506;11.320;2024-01-16T04:31:02;7.73;;;3.90;;
9960;SDS011;5021;51.506;11.320;2024-01-16T04:33:28;5.90;;;3.60;;
9960;SDS011;5021;51.506;11.320;2024-01-16T04:35:55;5.63;;;3.77;;
9960;SDS011;5021;51.506;11.320;2024-01-16T04:38:21;7.50;;;3.93;;
9960;SDS011;5021;51.506;11.320;2024-01-16T04:40:47;5.77;;;3.63;;
9960;SDS011;5021;51.506;11.320;2024-01-16T04:43:12;5.17;;;4.07;;
9960;SDS011;5021;51.506;11.320;2024-01-16T04:45:38;7.23;;;4.00;;
9960;SDS011;5021;51.506;11.320;2024-01-16T04:48:04;7.27;;;3.90;;
9960;SDS011;5021;51.506;11.320;2024-01-16T04:50:30;8.17;;;4.00;;
9960;SDS011;5021;51.506;11.320;2024-01-16T04:53:00;10.47;;;4.33;;
9960;SDS011;5021;51.506;11.320;2024-01-16T04:55:26;4.80;;;3.50;;
9960;SDS011;5021;51.506;11.320;2024-01-16T04:57:52;5.90;;;3.97;;
9960;SDS011;5021;51.506;11.320;2024-01-16T05:00:18;7.07;;;3.20;;
9960;SDS011;5021;51.506;11.320;2024-01-16T05:02:45;6.47;;;3.87;;
9960;SDS011;5021;51.506;11.320;2024-01-16T05:05:11;6.13;;;3.43;;
9960;SDS011;5021;51.506;11.320;2024-01-16T05:07:37;6.20;;;3.10;;
9960;SDS011;5021;51.506;11.320;2024-01-16T05:10:03;5.93;;;3.27;;
9960;SDS011;5021;51.506;11.320;2024-01-16T05:12:29;8.27;;;3.40;;
9960;SDS011;5021;51.506;11.320;2024-01-16T05:14:55;5.07;;;2.93;;
9960;SDS011;5021;51.506;11.320;2024-01-16T05:17:21;3.90;;;2.80;;
9960;SDS011;5021;51.506;11.320;2024-01-16T05:19:47;6.77;;;2.67;;
9960;SDS011;5021;51.506;11.320;2024-01-16T05:22:13;5.07;;;2.97;;
9960;SDS011;5021;51.506;11.320;2024-01-16T05:24:39;4.60;;;2.80;;
9960;SDS011;5021;51.506;11.320;2024-01-16T05:27:05;6.27;;;3.47;;
9960;SDS011;5021;51.506;11.320;2024-01-16T05:29:31;7.27;;;3.57;;
9960;SDS011;5021;51.506;11.320;2024-01-16T05:31:57;5.50;;;3.37;;
9960;SDS011;5021;51.506;11.320;2024-01-16T05:34:23;5.00;;;3.77;;
9960;SDS011;5021;51.506;11.320;2024-01-16T05:36:49;7.03;;;3.10;;
9960;SDS011;5021;51.506;11.320;2024-01-16T05:39:15;7.40;;;4.10;;
9960;SDS011;5021;51.506;11.320;2024-01-16T05:41:42;5.57;;;3.73;;
9960;SDS011;5021;51.506;11.320;2024-01-16T05:44:08;8.90;;;3.83;;
9960;SDS011;5021;51.506;11.320;2024-01-16T05:46:33;8.23;;;4.33;;
9960;SDS011;5021;51.506;11.320;2024-01-16T05:48:59;9.10;;;5.03;;
9960;SDS011;5021;51.506;11.320;2024-01-16T05:51:27;5.97;;;4.83;;
9960;SDS011;5021;51.506;11.320;2024-01-16T05:53:53;7.87;;;5.13;;
9960;SDS011;5021;51.506;11.320;2024-01-16T05:56:19;10.77;;;5.07;;
9960;SDS011;5021;51.506;11.320;2024-01-16T05:58:45;6.50;;;4.33;;
9960;SDS011;5021;51.506;11.320;2024-01-16T06:01:11;6.23;;;5.00;;
9960;SDS011;5021;51.506;11.320;2024-01-16T06:03:41;11.57;;;6.23;;
9960;SDS011;5021;51.506;11.320;2024-01-16T06:06:10;9.60;;;5.47;;
9960;SDS011;5021;51.506;11.320;2024-01-16T06:08:36;8.13;;;5.63;;
9960;SDS011;5021;51.506;11.320;2024-01-16T06:11:02;9.13;;;5.60;;
9960;SDS011;5021;51.506;11.320;2024-01-16T06:13:28;7.60;;;5.83;;
9960;SDS011;5021;51.506;11.320;2024-01-16T06:15:56;9.20;;;5.43;;
9960;SDS011;5021;51.506;11.320;2024-01-16T06:18:22;7.87;;;5.57;;
9960;SDS011;5021;51.506;11.320;2024-01-16T06:20:48;9.50;;;6.97;;
9960;SDS011;5021;51.506;11.320;2024-01-16T06:23:14;8.30;;;5.63;;
9960;SDS011;5021;51.506;11.320;2024-01-16T06:25:40;11.20;;;5.60;;
9960;SDS011;5021;51.506;11.320;2024-01-16T06:28:06;11.87;;;5.60;;
9960;SDS011;5021;51.506;11.320;2024-01-16T06:30:32;7.30;;;5.00;;
9960;SDS011;5021;51.506;11.320;2024-01-16T06:32:58;9.03;;;5.17;;
9960;SDS011;5021;51.506;11.320;2024-01-16T06:35:24;9.97;;;5.20;;
9960;SDS011;5021;51.506;11.320;2024-01-16T06:37:50;10.57;;;5.43;;
9960;SDS011;5021;51.506;11.320;2024-01-16T06:40:16;8.00;;;5.07;;
9960;SDS011;5021;51.506;11.320;2024-01-16T06:42:42;11.30;;;5.50;;
9960;SDS011;5021;51.506;11.320;2024-01-16T06:45:08;9.67;;;5.57;;
9960;SDS011;5021;51.506;11.320;2024-01-16T06:47:34;9.63;;;5.43;;
9960;SDS011;5021;51.506;11.320;2024-01-16T06:50:00;12.27;;;5.90;;
9960;SDS011;5021;51.506;11.320;2024-01-16T06:52:26;9.43;;;5.77;;
9960;SDS011;5021;51.506;11.320;2024-01-16T06:54:52;11.23;;;5.97;;
9960;SDS011;5021;51.506;11.320;2024-01-16T06:57:18;10.40;;;6.13;;
9960;SDS011;5021;51.506;11.320;2024-01-16T06:59:44;7.80;;;6.33;;
9960;SDS011;5021;51.506;11.320;2024-01-16T07:02:10;10.43;;;6.30;;
9960;SDS011;5021;51.506;11.320;2024-01-16T07:04:36;8.87;;;6.33;;
9960;SDS011;5021;51.506;11.320;2024-01-16T07:07:01;10.63;;;5.97;;
9960;SDS011;5021;51.506;11.320;2024-01-16T07:09:27;11.27;;;6.20;;
9960;SDS011;5021;51.506;11.320;2024-01-16T07:11:54;13.43;;;7.27;;
9960;SDS011;5021;51.506;11.320;2024-01-16T07:14:20;13.13;;;7.07;;
9960;SDS011;5021;51.506;11.320;2024-01-16T07:16:46;11.00;;;6.87;;
9960;SDS011;5021;51.506;11.320;2024-01-16T07:19:12;9.93;;;6.47;;
9960;SDS011;5021;51.506;11.320;2024-01-16T07:21:38;10.70;;;7.10;;
9960;SDS011;5021;51.506;11.320;2024-01-16T07:24:04;16.20;;;7.33;;
9960;SDS011;5021;51.506;11.320;2024-01-16T07:26:30;10.77;;;7.03;;
9960;SDS011;5021;51.506;11.320;2024-01-16T07:28:56;8.77;;;6.60;;
9960;SDS011;5021;51.506;11.320;2024-01-16T07:31:23;10.70;;;6.37;;
9960;SDS011;5021;51.506;11.320;2024-01-16T07:33:49;10.40;;;6.10;;
9960;SDS011;5021;51.506;11.320;2024-01-16T07:36:14;11.83;;;6.30;;
9960;SDS011;5021;51.506;11.320;2024-01-16T07:38:40;11.33;;;6.37;;
9960;SDS011;5021;51.506;11.320;2024-01-16T07:41:07;11.10;;;6.60;;
9960;SDS011;5021;51.506;11.320;2024-01-16T07:43:32;10.53;;;7.10;;
9960;SDS011;5021;51.506;11.320;2024-01-16T07:46:00;8.30;;;6.53;;
9960;SDS011;5021;51.506;11.320;2024-01-16T07:48:26;11.53;;;6.60;;
9960;SDS011;5021;51.506;11.320;2024-01-16T07:50:52;13.97;;;6.80;;
9960;SDS011;5021;51.506;11.320;2024-01-16T07:53:17;11.70;;;6.57;;
9960;SDS011;5021;51.506;11.320;2024-01-16T07:55:43;9.47;;;6.17;;
9960;SDS011;5021;51.506;11.320;2024-01-16T07:58:10;8.77;;;6.30;;
9960;SDS011;5021;51.506;11.320;2024-01-16T08:00:37;9.63;;;6.53;;
9960;SDS011;5021;51.506;11.320;2024-01-16T08:03:04;10.60;;;6.43;;
9960;SDS011;5021;51.506;11.320;2024-01-16T08:05:30;10.37;;;6.67;;
9960;SDS011;5021;51.506;11.320;2024-01-16T08:07:56;11.27;;;6.80;;
9960;SDS011;5021;51.506;11.320;2024-01-16T08:10:22;8.63;;;6.27;;
9960;SDS011;5021;51.506;11.320;2024-01-16T08:12:48;10.23;;;5.90;;
9960;SDS011;5021;51.506;11.320;2024-01-16T08:15:14;8.57;;;6.60;;
9960;SDS011;5021;51.506;11.320;2024-01-16T08:17:40;11.70;;;6.30;;
9960;SDS011;5021;51.506;11.320;2024-01-16T08:20:06;8.73;;;6.00;;
9960;SDS011;5021;51.506;11.320;2024-01-16T08:22:34;12.20;;;6.93;;
9960;SDS011;5021;51.506;11.320;2024-01-16T08:25:00;8.87;;;6.40;;
9960;SDS011;5021;51.506;11.320;2024-01-16T08:27:26;10.80;;;6.20;;
9960;SDS011;5021;51.506;11.320;2024-01-16T08:29:54;7.37;;;5.80;;
9960;SDS011;5021;51.506;11.320;2024-01-16T08:32:20;10.30;;;6.53;;
9960;SDS011;5021;51.506;11.320;2024-01-16T08:34:46;12.00;;;6.67;;
9960;SDS011;5021;51.506;11.320;2024-01-16T08:37:12;9.53;;;5.93;;
9960;SDS011;5021;51.506;11.320;2024-01-16T08:39:37;11.73;;;6.40;;
9960;SDS011;5021;51.506;11.320;2024-01-16T08:42:04;11.30;;;6.17;;
9960;SDS011;5021;51.506;11.320;2024-01-16T08:44:30;8.83;;;6.17;;
9960;SDS011;5021;51.506;11.320;2024-01-16T08:46:56;10.93;;;6.00;;
9960;SDS011;5021;51.506;11.320;2024-01-16T08:49:23;12.30;;;6.43;;
9960;SDS011;5021;51.506;11.320;2024-01-16T08:51:48;11.30;;;6.30;;
9960;SDS011;5021;51.506;11.320;2024-01-16T08:54:14;11.10;;;5.90;;
9960;SDS011;5021;51.506;11.320;2024-01-16T08:56:41;11.97;;;6.70;;
9960;SDS011;5021;51.506;11.320;2024-01-16T08:59:06;11.23;;;6.33;;
9960;SDS011;5021;51.506;11.320;2024-01-16T09:01:33;19.50;;;6.47;;
9960;SDS011;5021;51.506;11.320;2024-01-16T09:03:59;8.13;;;5.50;;
9960;SDS011;5021;51.506;11.320;2024-01-16T09:06:25;9.40;;;5.87;;
9960;SDS011;5021;51.506;11.320;2024-01-16T09:08:50;10.13;;;5.20;;
9960;SDS011;5021;51.506;11.320;2024-01-16T09:11:16;7.83;;;5.73;;
9960;SDS011;5021;51.506;11.320;2024-01-16T09:13:42;11.93;;;6.40;;
9960;SDS011;5021;51.506;11.320;2024-01-16T09:16:08;9.80;;;5.70;;
9960;SDS011;5021;51.506;11.320;2024-01-16T09:18:34;9.70;;;5.77;;
9960;SDS011;5021;51.506;11.320;2024-01-16T09:21:00;8.27;;;5.50;;
9960;SDS011;5021;51.506;11.320;2024-01-16T09:23:26;10.70;;;6.03;;
9960;SDS011;5021;51.506;11.320;2024-01-16T09:25:52;6.97;;;5.40;;
9960;SDS011;5021;51.506;11.320;2024-01-16T09:28:18;7.93;;;5.50;;
9960;SDS011;5021;51.506;11.320;2024-01-16T09:30:44;7.77;;;5.33;;
9960;SDS011;5021;51.506;11.320;2024-01-16T09:33:10;8.73;;;5.50;;
9960;SDS011;5021;51.506;11.320;2024-01-16T09:35:36;10.63;;;5.90;;
9960;SDS011;5021;51.506;11.320;2024-01-16T09:38:03;9.87;;;5.67;;
9960;SDS011;5021;51.506;11.320;2024-01-16T09:40:32;11.47;;;6.50;;
9960;SDS011;5021;51.506;11.320;2024-01-16T09:42:58;8.00;;;5.60;;
9960;SDS011;5021;51.506;11.320;2024-01-16T09:45:24;8.97;;;4.83;;
9960;SDS011;5021;51.506;11.320;2024-01-16T09:47:51;11.33;;;4.73;;
9960;SDS011;5021;51.506;11.320;2024-01-16T09:50:17;7.17;;;4.83;;
9960;SDS011;5021;51.506;11.320;2024-01-16T09:52:47;8.17;;;5.00;;
9960;SDS011;5021;51.506;11.320;2024-01-16T09:55:13;10.23;;;5.00;;
9960;SDS011;5021;51.506;11.320;2024-01-16T09:57:40;7.77;;;5.27;;
9960;SDS011;5021;51.506;11.320;2024-01-16T10:00:10;9.00;;;5.30;;
9960;SDS011;5021;51.506;11.320;2024-01-16T10:02:39;8.53;;;5.13;;
9960;SDS011;5021;51.506;11.320;2024-01-16T10:05:06;10.23;;;5.10;;
9960;SDS011;5021;51.506;11.320;2024-01-16T10:07:33;6.97;;;4.87;;
9960;SDS011;5021;51.506;11.320;2024-01-16T10:09:59;8.00;;;4.80;;
9960;SDS011;5021;51.506;11.320;2024-01-16T10:12:25;6.37;;;4.80;;
9960;SDS011;5021;51.506;11.320;2024-01-16T10:14:51;9.10;;;5.07;;
9960;SDS011;5021;51.506;11.320;2024-01-16T10:17:17;8.80;;;5.00;;
9960;SDS011;5021;51.506;11.320;2024-01-16T10:19:50;9.10;;;4.53;;
9960;SDS011;5021;51.506;11.320;2024-01-16T10:22:23;10.00;;;4.83;;
9960;SDS011;5021;51.506;11.320;2024-01-16T10:24:50;8.93;;;4.57;;
9960;SDS011;5021;51.506;11.320;2024-01-16T10:27:16;9.80;;;4.80;;
9960;SDS011;5021;51.506;11.320;2024-01-16T10:29:55;7.07;;;4.87;;
9960;SDS011;5021;51.506;11.320;2024-01-16T10:32:55;9.80;;;4.63;;
9960;SDS011;5021;51.506;11.320;2024-01-16T10:35:14;8.10;;;4.77;;
9960;SDS011;5021;51.506;11.320;2024-01-16T10:37:41;5.90;;;4.03;;
9960;SDS011;5021;51.506;11.320;2024-01-16T10:40:08;8.43;;;4.10;;
9960;SDS011;5021;51.506;11.320;2024-01-16T10:42:34;7.90;;;4.20;;
9960;SDS011;5021;51.506;11.320;2024-01-16T10:45:00;7.77;;;4.43;;
9960;SDS011;5021;51.506;11.320;2024-01-16T10:47:25;7.10;;;4.10;;
9960;SDS011;5021;51.506;11.320;2024-01-16T10:49:51;7.83;;;4.67;;
9960;SDS011;5021;51.506;11.320;2024-01-16T10:52:18;6.17;;;4.33;;
9960;SDS011;5021;51.506;11.320;2024-01-16T10:54:46;8.03;;;3.93;;
9960;SDS011;5021;51.506;11.320;2024-01-16T10:57:14;6.20;;;4.23;;
9960;SDS011;5021;51.506;11.320;2024-01-16T11:02:43;7.63;;;4.17;;
9960;SDS011;5021;51.506;11.320;2024-01-16T11:05:12;6.60;;;4.30;;
9960;SDS011;5021;51.506;11.320;2024-01-16T11:07:39;8.77;;;4.13;;
9960;SDS011;5021;51.506;11.320;2024-01-16T11:10:06;6.07;;;3.93;;
9960;SDS011;5021;51.506;11.320;2024-01-16T11:12:33;7.90;;;4.03;;
9960;SDS011;5021;51.506;11.320;2024-01-16T11:15:00;5.23;;;4.03;;
9960;SDS011;5021;51.506;11.320;2024-01-16T11:17:26;5.07;;;4.10;;
9960;SDS011;5021;51.506;11.320;2024-01-16T11:19:52;6.73;;;3.97;;
9960;SDS011;5021;51.506;11.320;2024-01-16T11:22:18;7.73;;;4.40;;
9960;SDS011;5021;51.506;11.320;2024-01-16T11:24:44;6.63;;;4.57;;
9960;SDS011;5021;51.506;11.320;2024-01-16T11:27:20;5.70;;;4.10;;
9960;SDS011;5021;51.506;11.320;2024-01-16T11:29:49;5.73;;;4.33;;
9960;SDS011;5021;51.506;11.320;2024-01-16T11:32:32;5.70;;;4.07;;
9960;SDS011;5021;51.506;11.320;2024-01-16T11:34:59;8.93;;;4.00;;
9960;SDS011;5021;51.506;11.320;2024-01-16T11:37:34;6.27;;;4.67;;
9960;SDS011;5021;51.506;11.320;2024-01-16T11:40:23;5.77;;;4.40;;
9960;SDS011;5021;51.506;11.320;2024-01-16T11:42:48;8.03;;;4.77;;
9960;SDS011;5021;51.506;11.320;2024-01-16T11:48:09;6.43;;;4.60;;
9960;SDS011;5021;51.506;11.320;2024-01-16T11:50:35;8.50;;;4.27;;
9960;SDS011;5021;51.506;11.320;2024-01-16T11:53:01;7.47;;;4.77;;
9960;SDS011;5021;51.506;11.320;2024-01-16T11:55:27;7.70;;;5.30;;
9960;SDS011;5021;51.506;11.320;2024-01-16T11:58:02;7.67;;;5.23;;
9960;SDS011;5021;51.506;11.320;2024-01-16T12:00:31;9.43;;;5.00;;
9960;SDS011;5021;51.506;11.320;2024-01-16T12:03:01;8.03;;;5.03;;
9960;SDS011;5021;51.506;11.320;2024-01-16T12:05:31;7.37;;;5.07;;
9960;SDS011;5021;51.506;11.320;2024-01-16T12:07:57;6.30;;;4.73;;
9960;SDS011;5021;51.506;11.320;2024-01-16T12:10:24;8.00;;;5.03;;
9960;SDS011;5021;51.506;11.320;2024-01-16T12:12:50;8.80;;;5.23;;
9960;SDS011;5021;51.506;11.320;2024-01-16T12:15:17;8.83;;;5.37;;
9960;SDS011;5021;51.506;11.320;2024-01-16T12:17:56;8.40;;;5.23;;
9960;SDS011;5021;51.506;11.320;2024-01-16T12:20:23;8.50;;;5.80;;
9960;SDS011;5021;51.506;11.320;2024-01-16T12:22:53;7.90;;;5.60;;
9960;SDS011;5021;51.506;11.320;2024-01-16T12:25:22;7.90;;;5.53;;
9960;SDS011;5021;51.506;11.320;2024-01-16T12:27:55;7.87;;;5.40;;
9960;SDS011;5021;51.506;11.320;2024-01-16T12:30:23;7.73;;;5.83;;
9960;SDS011;5021;51.506;11.320;2024-01-16T12:32:49;7.37;;;5.27;;
9960;SDS011;5021;51.506;11.320;2024-01-16T12:35:21;8.90;;;5.30;;
9960;SDS011;5021;51.506;11.320;2024-01-16T12:37:57;10.93;;;5.50;;
9960;SDS011;5021;51.506;11.320;2024-01-16T12:40:23;7.10;;;5.00;;
9960;SDS011;5021;51.506;11.320;2024-01-16T12:42:50;8.10;;;5.17;;
9960;SDS011;5021;51.506;11.320;2024-01-16T12:45:16;8.60;;;5.30;;
9960;SDS011;5021;51.506;11.320;2024-01-16T12:47:43;9.00;;;5.80;;
9960;SDS011;5021;51.506;11.320;2024-01-16T12:50:09;9.97;;;5.73;;
9960;SDS011;5021;51.506;11.320;2024-01-16T12:52:35;9.30;;;5.30;;
9960;SDS011;5021;51.506;11.320;2024-01-16T12:55:02;7.37;;;5.27;;
9960;SDS011;5021;51.506;11.320;2024-01-16T12:57:30;10.53;;;5.53;;
9960;SDS011;5021;51.506;11.320;2024-01-16T12:59:55;5.30;;;4.63;;
9960;SDS011;5021;51.506;11.320;2024-01-16T13:02:25;6.53;;;4.87;;
9960;SDS011;5021;51.506;11.320;2024-01-16T13:04:58;6.57;;;5.20;;
9960;SDS011;5021;51.506;11.320;2024-01-16T13:07:24;6.80;;;5.20;;
9960;SDS011;5021;51.506;11.320;2024-01-16T13:10:05;8.27;;;5.33;;
9960;SDS011;5021;51.506;11.320;2024-01-16T13:12:31;6.67;;;5.07;;
9960;SDS011;5021;51.506;11.320;2024-01-16T13:14:58;7.40;;;4.50;;
9960;SDS011;5021;51.506;11.320;2024-01-16T13:17:24;10.47;;;5.23;;
9960;SDS011;5021;51.506;11.320;2024-01-16T13:19:50;6.63;;;5.07;;
9960;SDS011;5021;51.506;11.320;2024-01-16T13:22:16;7.90;;;5.23;;
9960;SDS011;5021;51.506;11.320;2024-01-16T13:24:42;7.27;;;5.53;;
9960;SDS011;5021;51.506;11.320;2024-01-16T13:27:08;10.13;;;5.13;;
9960;SDS011;5021;51.506;11.320;2024-01-16T13:29:34;8.83;;;5.30;;
9960;SDS011;5021;51.506;11.320;2024-01-16T13:32:04;7.20;;;4.83;;
9960;SDS011;5021;51.506;11.320;2024-01-16T13:34:30;9.43;;;4.97;;
9960;SDS011;5021;51.506;11.320;2024-01-16T13:36:57;8.00;;;5.43;;
9960;SDS011;5021;51.506;11.320;2024-01-16T13:39:24;5.80;;;4.80;;
9960;SDS011;5021;51.506;11.320;2024-01-16T13:41:50;5.90;;;4.87;;
9960;SDS011;5021;51.506;11.320;2024-01-16T13:44:16;8.30;;;5.13;;
9960;SDS011;5021;51.506;11.320;2024-01-16T13:46:43;7.57;;;5.17;;
9960;SDS011;5021;51.506;11.320;2024-01-16T13:49:09;9.23;;;5.07;;
9960;SDS011;5021;51.506;11.320;2024-01-16T13:51:35;7.37;;;5.27;;
9960;SDS011;5021;51.506;11.320;2024-01-16T13:54:01;9.57;;;5.40;;
9960;SDS011;5021;51.506;11.320;2024-01-16T13:56:28;6.23;;;4.77;;
9960;SDS011;5021;51.506;11.320;2024-01-16T13:58:54;7.83;;;5.07;;
9960;SDS011;5021;51.506;11.320;2024-01-16T14:01:20;6.37;;;5.00;;
9960;SDS011;5021;51.506;11.320;2024-01-16T14:03:46;9.03;;;5.67;;
9960;SDS011;5021;51.506;11.320;2024-01-16T14:06:13;9.07;;;4.93;;
9960;SDS011;5021;51.506;11.320;2024-01-16T14:08:40;7.03;;;5.20;;
9960;SDS011;5021;51.506;11.320;2024-01-16T14:11:06;8.70;;;4.77;;
9960;SDS011;5021;51.506;11.320;2024-01-16T14:13:32;7.70;;;4.73;;
9960;SDS011;5021;51.506;11.320;2024-01-16T14:15:58;6.87;;;4.60;;
9960;SDS011;5021;51.506;11.320;2024-01-16T14:18:24;9.57;;;4.63;;
9960;SDS011;5021;51.506;11.320;2024-01-16T14:20:50;5.03;;;4.07;;
9960;SDS011;5021;51.506;11.320;2024-01-16T14:23:15;6.73;;;4.50;;
9960;SDS011;5021;51.506;11.320;2024-01-16T14:25:41;7.70;;;4.70;;
9960;SDS011;5021;51.506;11.320;2024-01-16T14:28:07;6.50;;;4.47;;
9960;SDS011;5021;51.506;11.320;2024-01-16T14:30:34;7.67;;;3.90;;
9960;SDS011;5021;51.506;11.320;2024-01-16T14:33:01;8.33;;;4.97;;
9960;SDS011;5021;51.506;11.320;2024-01-16T14:35:27;8.80;;;4.47;;
9960;SDS011;5021;51.506;11.320;2024-01-16T14:37:53;8.37;;;4.47;;
9960;SDS011;5021;51.506;11.320;2024-01-16T14:40:19;5.33;;;4.00;;
9960;SDS011;5021;51.506;11.320;2024-01-16T14:42:46;8.17;;;4.23;;
9960;SDS011;5021;51.506;11.320;2024-01-16T14:45:18;6.20;;;4.03;;
9960;SDS011;5021;51.506;11.320;2024-01-16T14:47:44;6.77;;;4.13;;
9960;SDS011;5021;51.506;11.320;2024-01-16T14:50:10;8.13;;;4.00;;
9960;SDS011;5021;51.506;11.320;2024-01-16T14:52:37;6.77;;;4.27;;
9960;SDS011;5021;51.506;11.320;2024-01-16T14:55:03;6.93;;;3.93;;
9960;SDS011;5021;51.506;11.320;2024-01-16T14:57:32;16.23;;;11.50;;
9960;SDS011;5021;51.506;11.320;2024-01-16T15:00:03;9.27;;;6.60;;
9960;SDS011;5021;51.506;11.320;2024-01-16T15:02:29;11.43;;;7.23;;